createdAt,value
2022-11-27T00:01:19.685Z,8.57
2022-11-27T00:04:09.194Z,9.21
2022-11-27T00:06:57.196Z,9.60
2022-11-27T00:09:44.978Z,9.94
2022-11-27T00:12:32.552Z,9.80
2022-11-27T00:15:20.273Z,8.55
2022-11-27T00:18:07.757Z,7.47
2022-11-27T00:20:55.410Z,7.14
2022-11-27T00:23:43.948Z,8.10
2022-11-27T00:26:37.473Z,8.94
2022-11-27T00:29:29.202Z,9.45
2022-11-27T00:32:17.119Z,9.82
2022-11-27T00:35:04.977Z,10.11
2022-11-27T00:37:52.413Z,9.95
2022-11-27T00:40:39.964Z,8.65
2022-11-27T00:43:27.787Z,7.52
2022-11-27T00:46:26.848Z,7.05
2022-11-27T00:49:16.025Z,8.03
2022-11-27T00:52:04.057Z,8.87
2022-11-27T00:54:51.609Z,9.36
2022-11-27T00:57:40.205Z,9.63
2022-11-27T01:00:27.874Z,9.84
2022-11-27T01:03:15.435Z,10.02
2022-11-27T01:06:07.322Z,9.76
2022-11-27T01:08:55.032Z,8.43
2022-11-27T01:11:43.067Z,7.36
2022-11-27T01:14:30.656Z,6.95
2022-11-27T01:17:18.503Z,7.84
2022-11-27T01:20:07.283Z,8.67
2022-11-27T01:22:54.803Z,9.21
2022-11-27T01:25:42.529Z,9.55
2022-11-27T01:28:31.539Z,9.84
2022-11-27T01:31:23.624Z,9.76
2022-11-27T01:34:17.897Z,8.50
2022-11-27T01:37:05.544Z,7.38
2022-11-27T01:39:53.285Z,6.95
2022-11-27T01:42:40.734Z,7.89
2022-11-27T01:45:28.539Z,8.78
2022-11-27T01:48:16.568Z,9.36
2022-11-27T01:51:04.829Z,9.75
2022-11-27T01:53:53.763Z,9.97
2022-11-27T01:56:46.122Z,10.10
2022-11-27T01:59:34.459Z,10.21
2022-11-27T02:02:22.167Z,9.34
2022-11-27T02:05:16.918Z,8.04
2022-11-27T02:08:14.424Z,7.06
2022-11-27T02:11:53.762Z,6.83
2022-11-27T02:15:14.546Z,8.21
2022-11-27T02:18:14.157Z,9.09
2022-11-27T02:21:01.875Z,9.50
2022-11-27T02:24:16.002Z,9.79
2022-11-27T02:27:12.508Z,10.01
2022-11-27T02:30:02.843Z,9.98
2022-11-27T02:32:59.035Z,8.79
2022-11-27T02:36:05.126Z,7.62
2022-11-27T02:39:10.892Z,7.01
2022-11-27T02:42:36.295Z,8.02
2022-11-27T02:45:31.671Z,9.00
2022-11-27T02:48:24.898Z,9.48
2022-11-27T02:51:15.030Z,9.85
2022-11-27T02:54:07.315Z,10.13
2022-11-27T02:56:57.416Z,10.25
2022-11-27T02:59:46.024Z,9.47
2022-11-27T03:02:41.975Z,8.19
2022-11-27T03:05:35.131Z,7.17
2022-11-27T03:08:45.655Z,6.87
2022-11-27T03:11:33.396Z,7.99
2022-11-27T03:14:24.569Z,8.82
2022-11-27T03:17:34.656Z,9.38
2022-11-27T03:20:37.237Z,9.78
2022-11-27T03:23:24.830Z,10.03
2022-11-27T03:26:12.396Z,10.33
2022-11-27T03:29:02.936Z,10.22
2022-11-27T03:31:51.590Z,8.94
2022-11-27T03:34:40.167Z,7.76
2022-11-27T03:37:28.613Z,7.42
2022-11-27T03:40:18.325Z,8.40
2022-11-27T03:43:23.109Z,9.20
2022-11-27T03:46:23.654Z,9.81
2022-11-27T03:49:33.942Z,10.19
2022-11-27T03:52:46.464Z,10.44
2022-11-27T03:56:10.358Z,10.20
2022-11-27T03:59:24.301Z,8.65
2022-11-27T04:02:15.200Z,7.50
2022-11-27T04:05:02.756Z,7.14
2022-11-27T04:07:50.560Z,8.10
2022-11-27T04:10:38.140Z,8.95
2022-11-27T04:13:26.053Z,9.55
2022-11-27T04:16:14.032Z,9.89
2022-11-27T04:19:01.461Z,10.09
2022-11-27T04:21:49.315Z,10.21
2022-11-27T04:24:36.622Z,10.41
2022-11-27T04:27:24.448Z,10.26
2022-11-27T04:30:13.254Z,8.99
2022-11-27T04:33:00.806Z,7.83
2022-11-27T04:35:48.990Z,7.41
2022-11-27T04:38:36.582Z,8.37
2022-11-27T04:41:23.787Z,9.22
2022-11-27T04:44:12.985Z,9.75
2022-11-27T04:47:00.663Z,10.08
2022-11-27T04:49:48.482Z,10.34
2022-11-27T04:52:36.440Z,10.49
2022-11-27T04:55:24.067Z,9.60
2022-11-27T04:58:11.671Z,8.35
2022-11-27T05:00:59.285Z,7.41
2022-11-27T05:03:48.573Z,7.14
2022-11-27T05:06:36.192Z,8.15
2022-11-27T05:09:23.713Z,8.97
2022-11-27T05:12:11.474Z,9.45
2022-11-27T05:15:04.054Z,9.70
2022-11-27T05:17:52.219Z,9.86
2022-11-27T05:20:40.073Z,10.02
2022-11-27T05:23:28.278Z,9.73
2022-11-27T05:26:15.665Z,8.37
2022-11-27T05:29:03.757Z,7.22
2022-11-27T05:31:52.104Z,6.80
2022-11-27T05:34:40.316Z,7.73
2022-11-27T05:37:28.486Z,8.54
2022-11-27T05:40:16.554Z,9.03
2022-11-27T05:43:04.130Z,9.34
2022-11-27T05:45:51.679Z,9.52
2022-11-27T05:48:39.181Z,9.68
2022-11-27T05:51:26.562Z,9.79
2022-11-27T05:54:14.141Z,9.82
2022-11-27T05:57:03.899Z,9.89
2022-11-27T05:59:51.848Z,9.60
2022-11-27T06:02:39.580Z,8.32
2022-11-27T06:05:27.156Z,7.20
2022-11-27T06:08:14.977Z,6.83
2022-11-27T06:11:16.755Z,7.79
2022-11-27T06:14:07.001Z,8.60
2022-11-27T06:16:54.586Z,9.12
2022-11-27T06:19:43.482Z,9.44
2022-11-27T06:22:31.601Z,9.65
2022-11-27T06:25:18.883Z,9.75
2022-11-27T06:28:06.299Z,9.96
2022-11-27T06:30:54.267Z,10.08
2022-11-27T06:33:42.213Z,10.22
2022-11-27T06:36:36.910Z,10.35
2022-11-27T06:39:24.379Z,10.08
2022-11-27T06:42:12.973Z,8.77
2022-11-27T06:45:00.695Z,7.66
2022-11-27T06:47:48.589Z,7.17
2022-11-27T06:50:36.380Z,8.07
2022-11-27T06:53:23.905Z,8.94
2022-11-27T06:56:15.334Z,9.49
2022-11-27T06:59:02.799Z,9.89
2022-11-27T07:01:50.173Z,10.20
2022-11-27T07:04:37.719Z,10.42
2022-11-27T07:07:25.541Z,10.63
2022-11-27T07:10:13.461Z,10.34
2022-11-27T07:13:01.435Z,8.96
2022-11-27T07:15:48.756Z,7.83
2022-11-27T07:18:43.184Z,7.38
2022-11-27T07:21:31.394Z,8.35
2022-11-27T07:24:20.459Z,9.18
2022-11-27T07:27:08.716Z,9.62
2022-11-27T07:29:56.391Z,10.02
2022-11-27T07:32:43.834Z,10.31
2022-11-27T07:35:31.098Z,10.61
2022-11-27T07:38:18.638Z,10.90
2022-11-27T07:41:06.878Z,10.69
2022-11-27T07:43:54.583Z,9.41
2022-11-27T07:46:42.187Z,8.33
2022-11-27T07:49:30.051Z,8.04
2022-11-27T07:52:17.909Z,9.08
2022-11-27T07:55:05.937Z,9.98
2022-11-27T07:57:53.733Z,10.65
2022-11-27T08:00:41.577Z,11.03
2022-11-27T08:03:29.360Z,10.99
2022-11-27T08:06:24.499Z,9.96
2022-11-27T08:09:12.008Z,9.00
2022-11-27T08:11:59.822Z,8.37
2022-11-27T08:14:47.840Z,8.39
2022-11-27T08:17:35.672Z,9.70
2022-11-27T08:20:23.883Z,10.76
2022-11-27T08:23:11.651Z,11.54
2022-11-27T08:25:59.153Z,11.83
2022-11-27T08:28:46.640Z,10.79
2022-11-27T08:31:34.204Z,9.76
2022-11-27T08:34:21.799Z,8.94
2022-11-27T08:37:09.727Z,8.99
2022-11-27T08:39:57.304Z,9.96
2022-11-27T08:42:44.889Z,10.63
2022-11-27T08:45:33.139Z,11.12
2022-11-27T08:48:22.381Z,11.11
2022-11-27T08:51:15.674Z,10.03
2022-11-27T08:54:03.803Z,9.15
2022-11-27T08:56:54.374Z,8.66
2022-11-27T08:59:41.722Z,9.54
2022-11-27T09:02:29.503Z,10.72
2022-11-27T09:05:17.483Z,11.53
2022-11-27T09:08:05.600Z,12.19
2022-11-27T09:10:53.155Z,12.41
2022-11-27T09:13:41.866Z,11.56
2022-11-27T09:16:30.679Z,10.78
2022-11-27T09:19:18.635Z,10.24
2022-11-27T09:22:06.540Z,10.33
2022-11-27T09:24:54.394Z,11.50
2022-11-27T09:27:41.977Z,12.38
2022-11-27T09:30:29.820Z,12.09
2022-11-27T09:33:17.450Z,11.47
2022-11-27T09:36:25.946Z,11.70
2022-11-27T09:39:15.689Z,12.96
2022-11-27T09:42:06.396Z,13.94
2022-11-27T09:44:59.483Z,14.37
2022-11-27T09:47:51.835Z,13.89
2022-11-27T09:50:50.377Z,13.37
2022-11-27T09:53:52.672Z,12.76
2022-11-27T09:56:43.009Z,12.24
2022-11-27T09:59:45.988Z,11.82
2022-11-27T10:02:35.409Z,12.40
2022-11-27T10:05:31.642Z,13.30
2022-11-27T10:08:39.877Z,13.43
2022-11-27T10:11:52.261Z,12.34
2022-11-27T10:14:59.849Z,11.53
2022-11-27T10:18:09.388Z,11.15
2022-11-27T10:21:11.312Z,12.16
2022-11-27T10:24:12.342Z,13.62
2022-11-27T10:27:00.642Z,14.12
2022-11-27T10:29:54.699Z,13.24
2022-11-27T10:32:54.986Z,12.39
2022-11-27T10:35:45.533Z,11.67
2022-11-27T10:38:38.433Z,11.10
2022-11-27T10:41:53.421Z,11.15
2022-11-27T10:44:47.985Z,12.20
2022-11-27T10:47:38.538Z,12.86
2022-11-27T10:50:26.144Z,12.86
2022-11-27T10:53:32.797Z,11.89
2022-11-27T10:56:45.039Z,10.97
2022-11-27T10:59:45.203Z,10.33
2022-11-27T11:02:37.951Z,9.95
2022-11-27T11:05:45.002Z,10.06
2022-11-27T11:08:37.114Z,11.44
2022-11-27T11:11:26.877Z,12.50
2022-11-27T11:14:27.227Z,12.88
2022-11-27T11:17:18.404Z,12.07
2022-11-27T11:20:23.089Z,11.40
2022-11-27T11:23:23.894Z,11.02
2022-11-27T11:26:31.530Z,11.98
2022-11-27T11:29:37.623Z,13.21
2022-11-27T11:32:40.382Z,13.48
2022-11-27T11:35:36.149Z,12.83
2022-11-27T11:38:33.124Z,13.46
2022-11-27T11:41:21.063Z,14.79
2022-11-27T11:44:25.913Z,15.91
2022-11-27T11:47:19.268Z,16.21
2022-11-27T11:50:13.597Z,16.27
2022-11-27T11:53:40.966Z,16.10
2022-11-27T11:56:44.921Z,15.65
2022-11-27T11:59:51.685Z,15.03
2022-11-27T12:03:19.350Z,14.34
2022-11-27T12:06:36.933Z,13.72
2022-11-27T12:09:54.527Z,13.22
2022-11-27T12:13:15.181Z,13.07
2022-11-27T12:16:07.754Z,13.61
2022-11-27T12:19:35.981Z,14.31
2022-11-27T12:22:45.171Z,14.78
2022-11-27T12:26:22.022Z,14.45
2022-11-27T12:29:25.156Z,13.63
2022-11-27T12:32:33.945Z,13.09
2022-11-27T12:35:41.918Z,12.50
2022-11-27T12:38:57.580Z,11.84
2022-11-27T12:41:56.236Z,11.22
2022-11-27T12:45:22.381Z,10.75
2022-11-27T12:48:42.635Z,10.30
2022-11-27T12:52:28.315Z,9.90
2022-11-27T12:55:25.500Z,9.50
2022-11-27T12:58:24.641Z,9.68
2022-11-27T13:01:33.338Z,11.00
2022-11-27T13:04:37.065Z,11.97
2022-11-27T13:07:51.911Z,12.45
2022-11-27T13:10:47.447Z,12.17
2022-11-27T13:13:46.560Z,10.89
2022-11-27T13:16:45.570Z,9.86
2022-11-27T13:19:45.237Z,9.11
2022-11-27T13:22:36.198Z,8.51
2022-11-27T13:25:25.822Z,8.03
2022-11-27T13:28:26.883Z,8.04
2022-11-27T13:31:23.948Z,9.35
2022-11-27T13:34:23.462Z,10.32
2022-11-27T13:37:41.104Z,10.94
2022-11-27T13:40:44.698Z,11.28
2022-11-27T13:43:47.150Z,10.46
2022-11-27T13:46:49.155Z,9.28
2022-11-27T13:49:38.056Z,8.42
2022-11-27T13:52:25.611Z,7.84
2022-11-27T13:55:23.568Z,7.75
2022-11-27T13:58:11.251Z,8.99
2022-11-27T14:01:00.099Z,9.92
2022-11-27T14:03:48.542Z,10.53
2022-11-27T14:06:38.653Z,10.94
2022-11-27T14:09:51.657Z,11.23
2022-11-27T14:12:40.803Z,10.84
2022-11-27T14:15:31.867Z,9.56
2022-11-27T14:18:22.013Z,8.55
2022-11-27T14:21:24.735Z,7.85
2022-11-27T14:24:45.908Z,7.86
2022-11-27T14:27:36.130Z,9.23
2022-11-27T14:30:28.884Z,10.02
2022-11-27T14:33:59.585Z,10.49
2022-11-27T14:36:43.033Z,10.87
2022-11-27T14:39:37.228Z,10.74
2022-11-27T14:42:30.223Z,9.51
2022-11-27T14:45:22.757Z,8.45
2022-11-27T14:48:24.033Z,7.71
2022-11-27T14:51:26.070Z,7.59
2022-11-27T14:54:22.371Z,8.85
2022-11-27T14:57:37.078Z,9.80
2022-11-27T15:00:27.359Z,10.45
2022-11-27T15:03:18.181Z,10.77
2022-11-27T15:06:07.973Z,11.05
2022-11-27T15:09:23.769Z,10.80
2022-11-27T15:12:33.945Z,9.32
2022-11-27T15:15:34.738Z,8.14
2022-11-27T15:18:24.091Z,7.42
2022-11-27T15:21:18.302Z,7.33
2022-11-27T15:24:06.306Z,8.58
2022-11-27T15:26:54.052Z,9.58
2022-11-27T15:30:07.955Z,10.23
2022-11-27T15:32:56.136Z,10.72
2022-11-27T15:35:43.709Z,11.04
2022-11-27T15:38:31.658Z,10.91
2022-11-27T15:41:28.825Z,9.65
2022-11-27T15:44:16.449Z,8.51
2022-11-27T15:47:06.682Z,7.80
2022-11-27T15:49:55.305Z,7.68
2022-11-27T15:52:44.249Z,8.87
2022-11-27T15:55:33.454Z,9.89
2022-11-27T15:58:20.893Z,10.55
2022-11-27T16:01:10.225Z,11.00
2022-11-27T16:03:58.800Z,10.88
2022-11-27T16:06:46.702Z,9.71
2022-11-27T16:09:35.952Z,8.75
2022-11-27T16:12:23.953Z,8.04
2022-11-27T16:15:11.817Z,7.51
2022-11-27T16:17:59.296Z,7.46
2022-11-27T16:20:47.202Z,8.64
2022-11-27T16:23:35.986Z,9.66
2022-11-27T16:26:23.520Z,10.26
2022-11-27T16:29:11.945Z,10.72
2022-11-27T16:31:59.861Z,11.11
2022-11-27T16:34:51.205Z,11.01
2022-11-27T16:37:41.131Z,9.84
2022-11-27T16:40:29.290Z,8.85
2022-11-27T16:43:17.810Z,8.14
2022-11-27T16:46:16.001Z,7.58
2022-11-27T16:49:06.572Z,7.53
2022-11-27T16:51:54.644Z,8.77
2022-11-27T16:54:43.168Z,9.78
2022-11-27T16:57:31.101Z,10.44
2022-11-27T17:00:19.712Z,10.90
2022-11-27T17:03:08.676Z,10.93
2022-11-27T17:05:58.722Z,9.76
2022-11-27T17:08:47.012Z,8.74
2022-11-27T17:11:37.520Z,8.06
2022-11-27T17:14:26.994Z,8.02
2022-11-27T17:17:15.238Z,9.21
2022-11-27T17:20:03.357Z,10.13
2022-11-27T17:22:52.357Z,10.72
2022-11-27T17:25:40.460Z,11.12
2022-11-27T17:28:28.253Z,11.08
2022-11-27T17:31:21.595Z,9.94
2022-11-27T17:34:13.411Z,8.91
2022-11-27T17:37:02.893Z,8.19
2022-11-27T17:39:53.001Z,8.09
2022-11-27T17:42:42.345Z,9.26
2022-11-27T17:45:29.855Z,10.22
2022-11-27T17:48:17.922Z,10.84
2022-11-27T17:51:06.646Z,11.18
2022-11-27T17:53:54.563Z,11.16
2022-11-27T17:56:44.319Z,10.03
2022-11-27T17:59:31.950Z,9.01
2022-11-27T18:02:19.641Z,8.21
2022-11-27T18:05:09.314Z,7.95
2022-11-27T18:07:57.580Z,9.06
2022-11-27T18:10:45.944Z,10.02
2022-11-27T18:13:34.265Z,10.64
2022-11-27T18:16:32.380Z,11.07
2022-11-27T18:19:21.229Z,10.90
2022-11-27T18:22:10.190Z,9.69
2022-11-27T18:24:57.945Z,8.65
2022-11-27T18:27:45.404Z,7.89
2022-11-27T18:30:34.944Z,7.73
2022-11-27T18:33:22.786Z,8.86
2022-11-27T18:36:13.076Z,9.84
2022-11-27T18:39:03.834Z,10.46
2022-11-27T18:41:52.681Z,10.89
2022-11-27T18:44:44.695Z,11.22
2022-11-27T18:47:34.007Z,11.03
2022-11-27T18:50:25.565Z,9.82
2022-11-27T18:53:18.010Z,8.75
2022-11-27T18:56:27.563Z,8.02
2022-11-27T18:59:15.325Z,7.91
2022-11-27T19:02:04.661Z,9.08
2022-11-27T19:04:52.981Z,9.98
2022-11-27T19:07:41.817Z,10.48
2022-11-27T19:10:29.886Z,10.78
2022-11-27T19:13:18.226Z,11.03
2022-11-27T19:16:09.001Z,10.84
2022-11-27T19:18:59.086Z,9.50
2022-11-27T19:21:46.679Z,8.35
2022-11-27T19:24:36.960Z,7.84
2022-11-27T19:27:24.661Z,8.77
2022-11-27T19:30:13.115Z,9.62
2022-11-27T19:33:02.427Z,10.13
2022-11-27T19:35:50.157Z,10.42
2022-11-27T19:38:40.241Z,10.63
2022-11-27T19:41:28.362Z,10.88
2022-11-27T19:44:20.634Z,11.04
2022-11-27T19:47:09.921Z,10.22
2022-11-27T19:49:57.900Z,8.95
2022-11-27T19:52:45.815Z,8.03
2022-11-27T19:55:35.449Z,7.82
2022-11-27T19:58:23.279Z,8.88
2022-11-27T20:01:19.004Z,9.72
2022-11-27T20:04:11.225Z,10.27
2022-11-27T20:06:59.524Z,10.67
2022-11-27T20:09:48.184Z,10.94
2022-11-27T20:12:37.020Z,10.55
2022-11-27T20:15:25.123Z,9.26
2022-11-27T20:18:13.234Z,8.25
2022-11-27T20:21:11.526Z,7.87
2022-11-27T20:23:58.915Z,8.91
2022-11-27T20:26:46.615Z,9.71
2022-11-27T20:29:34.247Z,10.22
2022-11-27T20:32:22.458Z,10.57
2022-11-27T20:35:10.325Z,10.82
2022-11-27T20:37:58.543Z,10.71
2022-11-27T20:40:46.715Z,9.51
2022-11-27T20:43:34.793Z,8.43
2022-11-27T20:46:22.707Z,7.66
2022-11-27T20:49:10.872Z,7.46
2022-11-27T20:52:03.470Z,8.55
2022-11-27T20:54:51.330Z,9.50
2022-11-27T20:57:39.075Z,10.08
2022-11-27T21:00:27.043Z,10.51
2022-11-27T21:03:14.690Z,10.86
2022-11-27T21:06:02.105Z,10.73
2022-11-27T21:08:50.526Z,9.57
2022-11-27T21:11:40.461Z,8.56
2022-11-27T21:14:28.735Z,7.81
2022-11-27T21:17:16.592Z,7.63
2022-11-27T21:20:06.083Z,8.73
2022-11-27T21:22:53.855Z,9.67
2022-11-27T21:25:43.796Z,10.22
2022-11-27T21:28:34.100Z,10.62
2022-11-27T21:31:25.078Z,10.58
2022-11-27T21:34:16.364Z,9.38
2022-11-27T21:37:05.201Z,8.32
2022-11-27T21:39:53.170Z,7.60
2022-11-27T21:42:44.527Z,7.40
2022-11-27T21:45:32.587Z,8.54
2022-11-27T21:48:21.331Z,9.53
2022-11-27T21:51:12.753Z,10.12
2022-11-27T21:54:01.311Z,10.51
2022-11-27T21:56:52.830Z,10.79
2022-11-27T21:59:42.897Z,10.58
2022-11-27T22:02:30.404Z,9.31
2022-11-27T22:05:18.812Z,8.28
2022-11-27T22:08:07.078Z,7.54
2022-11-27T22:11:01.219Z,7.31
2022-11-27T22:13:49.350Z,8.42
2022-11-27T22:16:44.411Z,9.37
2022-11-27T22:19:36.406Z,9.98
2022-11-27T22:22:24.151Z,10.36
2022-11-27T22:25:12.062Z,10.66
2022-11-27T22:27:59.571Z,10.84
2022-11-27T22:30:47.594Z,10.55
2022-11-27T22:33:37.123Z,9.33
2022-11-27T22:36:34.277Z,8.26
2022-11-27T22:39:22.218Z,7.43
2022-11-27T22:42:12.362Z,7.21
2022-11-27T22:45:00.294Z,8.33
2022-11-27T22:47:47.825Z,9.28
2022-11-27T22:50:35.218Z,9.88
2022-11-27T22:53:23.194Z,10.26
2022-11-27T22:56:12.799Z,10.52
2022-11-27T22:59:30.351Z,9.67
2022-11-27T23:02:09.518Z,8.33
2022-11-27T23:04:57.069Z,7.46
2022-11-27T23:07:44.892Z,7.22
2022-11-27T23:10:33.209Z,8.28
2022-11-27T23:13:20.931Z,9.15
2022-11-27T23:16:08.734Z,9.67
2022-11-27T23:18:59.616Z,9.98
2022-11-27T23:21:47.448Z,10.32
2022-11-27T23:24:35.087Z,10.25
2022-11-27T23:27:23.023Z,9.08
2022-11-27T23:30:11.622Z,7.97
2022-11-27T23:32:59.704Z,7.18
2022-11-27T23:35:47.521Z,6.98
2022-11-27T23:38:34.965Z,8.05
2022-11-27T23:41:25.130Z,9.01
2022-11-27T23:44:14.167Z,9.62
2022-11-27T23:47:02.177Z,10.03
2022-11-27T23:49:49.657Z,10.34
2022-11-27T23:52:36.986Z,10.20
2022-11-27T23:55:24.449Z,8.96
2022-11-27T23:58:12.326Z,7.90
